createdAt,value
2022-11-13T00:01:47.071Z,12.37
2022-11-13T00:04:14.522Z,9.70
2022-11-13T00:06:42.014Z,12.27
2022-11-13T00:09:12.098Z,13.77
2022-11-13T00:11:39.603Z,10.87
2022-11-13T00:14:07.035Z,11.00
2022-11-13T00:16:34.515Z,11.63
2022-11-13T00:19:02.059Z,10.63
2022-11-13T00:21:29.535Z,10.27
2022-11-13T00:23:57.268Z,10.53
2022-11-13T00:26:26.844Z,13.67
2022-11-13T00:28:55.124Z,13.87
2022-11-13T00:31:22.898Z,13.30
2022-11-13T00:34:25.852Z,11.17
2022-11-13T00:36:38.263Z,14.93
2022-11-13T00:39:05.738Z,11.40
2022-11-13T00:41:33.243Z,10.70
2022-11-13T00:44:00.719Z,12.07
2022-11-13T00:46:28.187Z,10.63
2022-11-13T00:48:55.623Z,12.23
2022-11-13T00:51:23.116Z,8.67
2022-11-13T00:53:50.600Z,10.13
2022-11-13T00:56:18.096Z,15.07
2022-11-13T00:58:45.634Z,14.13
2022-11-13T01:01:14.792Z,14.47
2022-11-13T01:03:42.743Z,12.27
2022-11-13T01:06:30.495Z,14.43
2022-11-13T01:08:59.487Z,13.43
2022-11-13T01:11:28.111Z,10.90
2022-11-13T01:13:56.111Z,13.03
2022-11-13T01:16:24.717Z,12.30
2022-11-13T01:18:54.503Z,16.10
2022-11-13T01:21:23.547Z,17.27
2022-11-13T01:23:50.994Z,12.20
2022-11-13T01:26:21.224Z,13.50
2022-11-13T01:28:48.763Z,14.93
2022-11-13T01:31:17.899Z,14.30
2022-11-13T01:33:45.952Z,11.97
2022-11-13T01:36:14.775Z,13.63
2022-11-13T01:38:42.282Z,10.90
2022-11-13T01:41:13.370Z,12.57
2022-11-13T01:43:40.832Z,13.53
2022-11-13T01:46:10.221Z,14.03
2022-11-13T01:48:40.672Z,13.43
2022-11-13T01:51:28.354Z,12.03
2022-11-13T01:53:56.479Z,11.93
2022-11-13T01:56:24.190Z,13.77
2022-11-13T01:59:05.716Z,11.23
2022-11-13T02:01:33.728Z,15.77
2022-11-13T02:04:01.166Z,12.90
2022-11-13T02:06:31.425Z,8.80
2022-11-13T02:08:59.031Z,11.30
2022-11-13T02:11:26.542Z,11.27
2022-11-13T02:13:54.040Z,10.23
2022-11-13T02:16:22.106Z,9.97
2022-11-13T02:18:49.874Z,9.83
2022-11-13T02:21:17.292Z,9.23
2022-11-13T02:23:52.904Z,11.50
2022-11-13T02:26:21.719Z,8.40
2022-11-13T02:28:49.146Z,8.30
2022-11-13T02:31:16.707Z,10.40
2022-11-13T02:33:44.183Z,10.30
2022-11-13T02:36:12.352Z,8.13
2022-11-13T02:38:41.063Z,7.37
2022-11-13T02:41:08.601Z,9.30
2022-11-13T02:43:36.130Z,10.00
2022-11-13T02:46:03.639Z,10.17
2022-11-13T02:48:31.337Z,10.40
2022-11-13T02:50:58.967Z,13.27
2022-11-13T02:53:26.439Z,9.47
2022-11-13T02:55:53.898Z,10.63
2022-11-13T02:58:21.352Z,11.43
2022-11-13T03:00:48.819Z,9.37
2022-11-13T03:03:29.064Z,11.37
2022-11-13T03:06:03.734Z,8.47
2022-11-13T03:08:32.111Z,9.03
2022-11-13T03:11:00.299Z,9.67
2022-11-13T03:13:28.464Z,10.30
2022-11-13T03:15:55.910Z,10.07
2022-11-13T03:18:23.363Z,10.23
2022-11-13T03:20:50.806Z,13.50
2022-11-13T03:23:18.242Z,11.97
2022-11-13T03:25:45.730Z,12.43
2022-11-13T03:28:13.196Z,10.57
2022-11-13T03:30:40.680Z,10.13
2022-11-13T03:33:08.152Z,9.03
2022-11-13T03:35:42.999Z,9.17
2022-11-13T03:38:13.070Z,10.50
2022-11-13T03:40:40.543Z,14.77
2022-11-13T03:43:07.971Z,10.00
2022-11-13T03:45:35.495Z,10.50
2022-11-13T03:48:02.973Z,7.80
2022-11-13T03:50:30.646Z,9.47
2022-11-13T03:52:58.095Z,7.53
2022-11-13T03:55:25.720Z,8.80
2022-11-13T03:57:53.502Z,7.53
2022-11-13T04:00:21.040Z,8.47
2022-11-13T04:02:48.482Z,9.57
2022-11-13T04:05:20.061Z,10.17
2022-11-13T04:07:50.201Z,8.03
2022-11-13T04:10:18.031Z,8.00
2022-11-13T04:12:45.553Z,9.53
2022-11-13T04:15:13.105Z,8.50
2022-11-13T04:17:40.722Z,8.77
2022-11-13T04:20:08.597Z,8.40
2022-11-13T04:22:36.052Z,7.43
2022-11-13T04:25:03.639Z,7.83
2022-11-13T04:27:31.118Z,8.70
2022-11-13T04:29:58.546Z,8.03
2022-11-13T04:32:26.071Z,8.47
2022-11-13T04:34:53.526Z,7.97
2022-11-13T04:37:20.988Z,8.97
2022-11-13T04:39:48.432Z,8.87
2022-11-13T04:42:15.955Z,7.10
2022-11-13T04:44:43.410Z,9.10
2022-11-13T04:47:11.362Z,9.23
2022-11-13T04:49:38.831Z,9.83
2022-11-13T04:52:06.370Z,10.00
2022-11-13T04:54:33.806Z,7.60
2022-11-13T04:57:01.269Z,9.10
2022-11-13T04:59:28.743Z,10.23
2022-11-13T05:01:56.303Z,11.00
2022-11-13T05:04:24.192Z,8.33
2022-11-13T05:06:51.747Z,9.13
2022-11-13T05:09:19.227Z,10.77
2022-11-13T05:11:46.750Z,10.67
2022-11-13T05:14:14.329Z,9.07
2022-11-13T05:16:41.782Z,15.77
2022-11-13T05:19:09.221Z,12.07
2022-11-13T05:21:37.510Z,11.60
2022-11-13T05:24:05.130Z,10.03
2022-11-13T05:26:32.742Z,10.53
2022-11-13T05:29:00.599Z,8.53
2022-11-13T05:31:28.427Z,9.97
2022-11-13T05:33:55.898Z,11.50
2022-11-13T05:36:23.721Z,11.50
2022-11-13T05:38:51.145Z,10.17
2022-11-13T05:41:20.509Z,10.43
2022-11-13T05:43:48.085Z,12.63
2022-11-13T05:46:16.689Z,9.57
2022-11-13T05:48:44.803Z,11.90
2022-11-13T05:51:16.660Z,10.17
2022-11-13T05:53:44.381Z,13.03
2022-11-13T05:56:14.233Z,10.70
2022-11-13T05:58:42.409Z,9.40
2022-11-13T06:01:11.270Z,9.23
2022-11-13T06:03:39.082Z,10.03
2022-11-13T06:06:07.640Z,9.47
2022-11-13T06:08:35.228Z,10.53
2022-11-13T06:11:04.170Z,10.93
2022-11-13T06:13:31.686Z,8.97
2022-11-13T06:16:03.113Z,9.80
2022-11-13T06:18:30.773Z,8.47
2022-11-13T06:21:02.068Z,9.30
2022-11-13T06:23:29.889Z,12.70
2022-11-13T06:26:08.688Z,10.07
2022-11-13T06:28:36.654Z,11.73
2022-11-13T06:31:09.393Z,8.37
2022-11-13T06:33:37.349Z,10.17
2022-11-13T06:36:05.877Z,11.83
2022-11-13T06:38:34.507Z,12.20
2022-11-13T06:41:02.578Z,10.77
2022-11-13T06:43:30.544Z,10.53
2022-11-13T06:45:58.306Z,9.63
2022-11-13T06:48:26.281Z,11.83
2022-11-13T06:50:54.050Z,11.87
2022-11-13T06:53:21.529Z,11.67
2022-11-13T06:55:50.045Z,11.00
2022-11-13T06:58:17.901Z,11.23
2022-11-13T07:00:45.488Z,10.37
2022-11-13T07:03:19.757Z,11.93
2022-11-13T07:05:47.516Z,10.20
2022-11-13T07:08:15.376Z,10.93
2022-11-13T07:10:43.208Z,12.17
2022-11-13T07:13:10.721Z,9.43
2022-11-13T07:15:38.963Z,10.47
2022-11-13T07:18:07.079Z,11.07
2022-11-13T07:20:34.804Z,10.73
2022-11-13T07:23:03.119Z,9.23
2022-11-13T07:25:31.094Z,10.40
2022-11-13T07:27:58.738Z,10.00
2022-11-13T07:30:26.254Z,10.57
2022-11-13T07:32:53.782Z,11.17
2022-11-13T07:35:21.417Z,13.43
2022-11-13T07:37:48.900Z,12.53
2022-11-13T07:40:16.596Z,9.00
2022-11-13T07:42:44.039Z,15.80
2022-11-13T07:45:11.524Z,9.37
2022-11-13T07:47:39.088Z,10.30
2022-11-13T07:50:10.706Z,10.83
2022-11-13T07:52:38.553Z,14.87
2022-11-13T07:55:06.269Z,9.70
2022-11-13T07:57:33.736Z,10.77
2022-11-13T08:00:01.165Z,10.60
2022-11-13T08:02:28.653Z,10.97
2022-11-13T08:04:56.162Z,11.20
2022-11-13T08:07:23.705Z,10.73
2022-11-13T08:09:51.158Z,8.90
2022-11-13T08:12:18.626Z,8.53
2022-11-13T08:14:46.079Z,10.10
2022-11-13T08:17:13.540Z,10.37
2022-11-13T08:19:40.985Z,7.90
2022-11-13T08:22:08.464Z,7.07
2022-11-13T08:24:35.943Z,7.90
2022-11-13T08:27:03.390Z,9.73
2022-11-13T08:29:30.943Z,7.53
2022-11-13T08:31:58.437Z,8.03
2022-11-13T08:34:25.878Z,7.83
2022-11-13T08:39:42.674Z,7.83
2022-11-13T08:42:10.135Z,9.10
2022-11-13T08:44:37.581Z,7.67
2022-11-13T08:47:05.183Z,7.93
2022-11-13T08:49:32.637Z,10.47
2022-11-13T08:52:00.256Z,7.17
2022-11-13T08:54:27.731Z,6.93
2022-11-13T08:56:57.271Z,8.10
2022-11-13T08:59:27.101Z,6.37
2022-11-13T09:01:54.754Z,10.20
2022-11-13T09:04:22.223Z,9.10
2022-11-13T09:06:49.756Z,8.33
2022-11-13T09:09:17.203Z,6.67
2022-11-13T09:11:44.650Z,8.20
2022-11-13T09:14:12.190Z,6.90
2022-11-13T09:16:39.662Z,6.50
2022-11-13T09:19:07.111Z,5.97
2022-11-13T09:21:34.605Z,5.97
2022-11-13T09:24:02.301Z,5.03
2022-11-13T09:26:29.772Z,6.43
2022-11-13T09:28:57.263Z,6.67
2022-11-13T09:31:24.756Z,5.87
2022-11-13T09:33:52.209Z,7.23
2022-11-13T09:36:19.693Z,4.80
2022-11-13T09:38:47.262Z,5.80
2022-11-13T09:41:26.302Z,7.40
2022-11-13T09:43:59.549Z,3.97
2022-11-13T09:46:45.996Z,4.73
2022-11-13T09:49:25.215Z,3.80
2022-11-13T09:51:54.709Z,7.20
2022-11-13T09:54:22.484Z,3.50
2022-11-13T09:56:58.484Z,4.23
2022-11-13T09:59:35.243Z,2.93
2022-11-13T10:02:02.704Z,3.73
2022-11-13T10:04:45.358Z,3.30
2022-11-13T10:07:31.814Z,3.63
2022-11-13T10:10:02.139Z,4.03
2022-11-13T10:12:30.878Z,2.30
2022-11-13T10:15:01.042Z,4.37
2022-11-13T10:17:39.742Z,3.00
2022-11-13T10:20:13.350Z,4.27
2022-11-13T10:22:56.151Z,2.87
2022-11-13T10:25:29.167Z,5.27
2022-11-13T10:28:04.539Z,3.47
2022-11-13T10:30:43.614Z,3.03
2022-11-13T10:33:13.812Z,2.70
2022-11-13T10:35:47.483Z,3.67
2022-11-13T10:38:30.061Z,2.60
2022-11-13T10:41:08.847Z,3.10
2022-11-13T10:43:36.348Z,2.93
2022-11-13T10:46:05.284Z,4.03
2022-11-13T10:48:34.308Z,4.10
2022-11-13T10:51:03.198Z,4.73
2022-11-13T10:53:38.243Z,2.77
2022-11-13T10:56:27.137Z,5.80
2022-11-13T10:59:08.836Z,3.40
2022-11-13T11:01:36.357Z,3.70
2022-11-13T11:04:04.808Z,7.97
2022-11-13T11:07:12.753Z,6.87
2022-11-13T11:09:28.153Z,6.60
2022-11-13T11:12:15.352Z,6.80
2022-11-13T11:14:45.814Z,6.47
2022-11-13T11:17:14.855Z,6.07
2022-11-13T11:19:43.351Z,3.60
2022-11-13T11:22:16.640Z,6.90
2022-11-13T11:24:52.257Z,3.10
2022-11-13T11:27:21.825Z,4.33
2022-11-13T11:29:52.038Z,7.87
2022-11-13T11:32:34.690Z,3.00
2022-11-13T11:35:07.596Z,2.30
2022-11-13T11:37:54.071Z,2.57
2022-11-13T11:40:26.312Z,4.80
2022-11-13T11:42:56.890Z,3.57
2022-11-13T11:45:25.824Z,2.93
2022-11-13T11:47:53.829Z,2.50
2022-11-13T11:50:30.705Z,2.70
2022-11-13T11:53:05.179Z,3.10
2022-11-13T11:55:51.338Z,2.73
2022-11-13T11:58:37.445Z,2.20
2022-11-13T12:01:34.288Z,2.70
2022-11-13T12:04:22.013Z,3.40
2022-11-13T12:06:57.467Z,2.70
2022-11-13T12:09:29.297Z,2.73
2022-11-13T12:12:15.782Z,3.50
2022-11-13T12:14:46.371Z,3.27
2022-11-13T12:17:32.498Z,2.40
2022-11-13T12:20:08.927Z,4.40
2022-11-13T12:22:39.255Z,4.33
2022-11-13T12:25:13.996Z,2.63
2022-11-13T12:27:48.260Z,4.60
2022-11-13T12:30:18.827Z,3.87
2022-11-13T12:32:49.391Z,4.67
2022-11-13T12:35:18.713Z,2.40
2022-11-13T12:37:49.176Z,2.27
2022-11-13T12:40:19.830Z,2.80
2022-11-13T12:42:50.033Z,2.70
2022-11-13T12:45:22.085Z,4.97
2022-11-13T12:47:49.647Z,3.97
2022-11-13T12:50:30.544Z,2.53
2022-11-13T12:53:26.063Z,2.00
2022-11-13T12:55:57.961Z,4.23
2022-11-13T12:58:27.302Z,2.93
2022-11-13T13:01:07.381Z,7.13
2022-11-13T13:03:53.640Z,3.63
2022-11-13T13:06:39.713Z,4.20
2022-11-13T13:09:09.976Z,4.47
2022-11-13T13:11:37.472Z,3.63
2022-11-13T13:14:04.925Z,2.03
2022-11-13T13:16:32.414Z,2.57
2022-11-13T13:19:06.845Z,2.57
2022-11-13T13:21:41.027Z,2.60
2022-11-13T13:24:27.699Z,2.40
2022-11-13T13:26:55.368Z,3.30
2022-11-13T13:29:24.387Z,2.27
2022-11-13T13:32:20.641Z,3.47
2022-11-13T13:35:05.084Z,4.23
2022-11-13T13:37:47.945Z,3.67
2022-11-13T13:40:15.400Z,3.47
2022-11-13T13:43:01.682Z,3.93
2022-11-13T13:45:31.979Z,3.33
2022-11-13T13:47:59.578Z,3.63
2022-11-13T13:50:41.633Z,3.63
2022-11-13T13:53:10.188Z,2.63
2022-11-13T13:55:39.458Z,3.30
2022-11-13T13:58:13.053Z,7.03
2022-11-13T14:00:59.184Z,4.37
2022-11-13T14:03:28.191Z,3.93
2022-11-13T14:06:00.945Z,2.60
2022-11-13T14:08:30.560Z,4.07
2022-11-13T14:10:58.241Z,2.27
2022-11-13T14:13:27.094Z,4.17
2022-11-13T14:16:04.842Z,5.30
2022-11-13T14:18:33.135Z,5.03
2022-11-13T14:21:01.973Z,5.67
2022-11-13T14:23:35.150Z,6.13
2022-11-13T14:26:03.849Z,3.07
2022-11-13T14:28:33.055Z,3.63
2022-11-13T14:31:02.618Z,4.13
2022-11-13T14:33:35.751Z,3.83
2022-11-13T14:36:03.995Z,4.43
2022-11-13T14:38:36.542Z,5.67
2022-11-13T14:41:04.807Z,2.83
2022-11-13T14:43:33.351Z,3.13
2022-11-13T14:46:01.956Z,3.33
2022-11-13T14:48:31.055Z,4.67
2022-11-13T14:51:03.085Z,5.70
2022-11-13T14:53:40.632Z,3.40
2022-11-13T14:56:09.431Z,7.00
2022-11-13T14:58:38.551Z,3.80
2022-11-13T15:01:32.630Z,4.20
2022-11-13T15:04:00.247Z,8.13
2022-11-13T15:06:34.093Z,3.23
2022-11-13T15:09:01.778Z,5.23
2022-11-13T15:11:29.264Z,5.80
2022-11-13T15:14:01.427Z,4.57
2022-11-13T15:16:32.009Z,6.33
2022-11-13T15:19:01.888Z,8.47
2022-11-13T15:21:29.703Z,4.93
2022-11-13T15:23:57.610Z,8.40
2022-11-13T15:26:25.146Z,8.00
2022-11-13T15:28:52.601Z,10.77
2022-11-13T15:31:21.760Z,11.20
2022-11-13T15:33:49.355Z,11.33
2022-11-13T15:36:17.080Z,10.20
2022-11-13T15:38:44.557Z,8.60
2022-11-13T15:41:13.444Z,11.53
2022-11-13T15:43:44.764Z,12.47
2022-11-13T15:46:13.285Z,7.97
2022-11-13T15:48:40.911Z,12.47
2022-11-13T15:51:23.809Z,10.97
2022-11-13T15:53:55.342Z,9.87
2022-11-13T15:56:24.051Z,12.10
2022-11-13T15:58:51.786Z,12.23
2022-11-13T16:01:20.032Z,11.77
2022-11-13T16:03:47.910Z,11.30
2022-11-13T16:06:17.348Z,10.93
2022-11-13T16:08:44.867Z,11.77
2022-11-13T16:11:15.921Z,12.30
2022-11-13T16:13:43.510Z,10.43
2022-11-13T16:16:17.104Z,25.47
2022-11-13T16:18:44.587Z,27.57
2022-11-13T16:21:13.494Z,11.83
2022-11-13T16:23:41.230Z,30.97
2022-11-13T16:26:19.612Z,23.60
2022-11-13T16:29:12.222Z,14.47
2022-11-13T16:31:34.925Z,14.57
2022-11-13T16:34:02.451Z,15.83
2022-11-13T16:36:29.989Z,13.57
2022-11-13T16:38:57.457Z,12.77
2022-11-13T16:41:24.913Z,11.27
2022-11-13T16:43:52.410Z,9.97
2022-11-13T16:46:30.710Z,11.87
2022-11-13T16:48:58.395Z,10.33
2022-11-13T16:51:26.102Z,18.13
2022-11-13T16:53:53.664Z,13.40
2022-11-13T16:56:22.543Z,12.90
2022-11-13T16:58:50.083Z,12.43
2022-11-13T17:01:18.792Z,12.37
2022-11-13T17:03:46.719Z,12.13
2022-11-13T17:06:19.940Z,11.00
2022-11-13T17:08:49.282Z,10.60
2022-11-13T17:11:16.717Z,13.17
2022-11-13T17:13:44.261Z,12.93
2022-11-13T17:16:12.302Z,13.50
2022-11-13T17:18:39.787Z,11.00
2022-11-13T17:21:07.312Z,10.40
2022-11-13T17:23:34.832Z,12.97
2022-11-13T17:26:02.988Z,12.47
2022-11-13T17:28:30.702Z,13.17
2022-11-13T17:31:01.907Z,16.20
2022-11-13T17:33:29.812Z,13.70
2022-11-13T17:35:57.912Z,14.80
2022-11-13T17:38:25.849Z,16.80
2022-11-13T17:40:53.775Z,19.33
2022-11-13T17:43:21.970Z,16.83
2022-11-13T17:45:50.307Z,13.93
2022-11-13T17:48:18.198Z,14.37
2022-11-13T17:50:45.695Z,15.50
2022-11-13T17:53:13.845Z,12.73
2022-11-13T17:55:41.478Z,16.60
2022-11-13T17:58:09.023Z,15.77
2022-11-13T18:00:36.499Z,20.60
2022-11-13T18:03:03.982Z,23.93
2022-11-13T18:05:31.462Z,32.07
2022-11-13T18:07:58.915Z,30.67
2022-11-13T18:10:26.347Z,28.47
2022-11-13T18:12:53.846Z,30.60
2022-11-13T18:15:21.277Z,33.37
2022-11-13T18:17:48.906Z,23.23
2022-11-13T18:20:16.591Z,22.90
2022-11-13T18:22:44.114Z,24.27
2022-11-13T18:25:11.649Z,24.00
2022-11-13T18:27:39.131Z,19.90
2022-11-13T18:30:06.952Z,19.93
2022-11-13T18:32:34.487Z,20.27
2022-11-13T18:35:01.929Z,31.83
2022-11-13T18:37:29.402Z,20.50
2022-11-13T18:39:56.974Z,35.87
2022-11-13T18:42:24.843Z,24.80
2022-11-13T18:44:52.319Z,21.97
2022-11-13T18:47:19.962Z,24.00
2022-11-13T18:49:47.466Z,18.43
2022-11-13T18:52:15.135Z,28.40
2022-11-13T18:54:42.632Z,23.90
2022-11-13T18:57:10.138Z,24.37
2022-11-13T18:59:37.644Z,16.93
2022-11-13T19:02:05.214Z,18.07
2022-11-13T19:04:33.306Z,23.23
2022-11-13T19:07:01.912Z,18.93
2022-11-13T19:09:29.427Z,17.27
2022-11-13T19:11:57.762Z,15.20
2022-11-13T19:14:28.188Z,16.30
2022-11-13T19:16:57.167Z,16.87
2022-11-13T19:19:27.499Z,21.57
2022-11-13T19:21:55.049Z,21.93
2022-11-13T19:24:22.622Z,26.37
2022-11-13T19:26:53.861Z,23.60
2022-11-13T19:29:22.894Z,21.33
2022-11-13T19:31:50.426Z,21.43
2022-11-13T19:34:18.267Z,22.13
2022-11-13T19:36:50.954Z,18.67
2022-11-13T19:39:18.465Z,19.13
2022-11-13T19:41:46.006Z,22.13
2022-11-13T19:44:16.795Z,21.23
2022-11-13T19:46:44.514Z,21.70
2022-11-13T19:49:11.972Z,21.93
2022-11-13T19:51:39.480Z,22.07
2022-11-13T19:54:06.968Z,22.87
2022-11-13T19:56:34.513Z,18.23
2022-11-13T19:59:02.033Z,20.63
2022-11-13T20:01:29.943Z,15.17
2022-11-13T20:03:58.693Z,22.37
2022-11-13T20:06:26.928Z,20.77
2022-11-13T20:08:54.540Z,21.50
2022-11-13T20:11:22.091Z,20.10
2022-11-13T20:13:49.601Z,20.77
2022-11-13T20:16:17.683Z,16.63
2022-11-13T20:18:45.452Z,16.47
2022-11-13T20:21:13.082Z,18.00
2022-11-13T20:23:40.639Z,18.13
2022-11-13T20:26:12.690Z,18.50
2022-11-13T20:28:40.324Z,21.57
2022-11-13T20:31:11.328Z,19.57
2022-11-13T20:33:38.854Z,20.23
2022-11-13T20:36:06.631Z,21.63
2022-11-13T20:38:34.147Z,22.47
2022-11-13T20:41:05.309Z,22.10
2022-11-13T20:43:32.834Z,21.73
2022-11-13T20:46:07.663Z,22.77
2022-11-13T20:48:35.212Z,22.33
2022-11-13T20:51:09.885Z,28.17
2022-11-13T20:53:37.469Z,24.00
2022-11-13T20:56:05.413Z,20.83
2022-11-13T20:58:32.933Z,22.70
2022-11-13T21:01:14.472Z,24.00
2022-11-13T21:03:42.801Z,20.93
2022-11-13T21:06:11.556Z,17.63
2022-11-13T21:08:39.446Z,18.30
2022-11-13T21:11:07.741Z,19.67
2022-11-13T21:13:35.580Z,19.50
2022-11-13T21:16:07.082Z,16.67
2022-11-13T21:18:35.088Z,16.60
2022-11-13T21:21:21.982Z,19.00
2022-11-13T21:23:49.803Z,19.00
2022-11-13T21:26:17.403Z,20.70
2022-11-13T21:28:45.687Z,21.67
2022-11-13T21:31:18.640Z,22.23
2022-11-13T21:33:47.241Z,18.23
2022-11-13T21:36:21.890Z,15.23
2022-11-13T21:38:50.154Z,14.90
2022-11-13T21:41:17.627Z,16.77
2022-11-13T21:43:45.161Z,18.13
2022-11-13T21:46:12.648Z,18.47
2022-11-13T21:48:40.342Z,20.10
2022-11-13T21:51:08.109Z,20.63
2022-11-13T21:53:35.668Z,19.07
2022-11-13T21:56:03.225Z,18.03
2022-11-13T21:58:31.411Z,18.20
2022-11-13T22:00:59.478Z,15.50
2022-11-13T22:03:27.577Z,18.07
2022-11-13T22:06:13.579Z,17.90
2022-11-13T22:08:41.207Z,18.67
2022-11-13T22:11:08.687Z,19.70
2022-11-13T22:13:36.241Z,15.77
2022-11-13T22:16:04.713Z,14.40
2022-11-13T22:18:32.335Z,19.43
2022-11-13T22:21:03.720Z,16.17
2022-11-13T22:23:31.571Z,16.57
2022-11-13T22:26:04.922Z,15.50
2022-11-13T22:28:33.026Z,17.63
2022-11-13T22:31:01.139Z,17.97
2022-11-13T22:33:32.437Z,13.73
2022-11-13T22:36:02.807Z,14.63
2022-11-13T22:38:30.577Z,14.30
2022-11-13T22:41:02.319Z,13.73
2022-11-13T22:43:32.624Z,20.00
2022-11-13T22:46:04.076Z,14.53
2022-11-13T22:48:31.897Z,15.33
2022-11-13T22:51:04.017Z,15.40
2022-11-13T22:53:31.553Z,18.37
2022-11-13T22:56:02.867Z,12.80
2022-11-13T22:58:31.749Z,15.50
2022-11-13T23:01:05.649Z,15.40
2022-11-13T23:03:33.478Z,16.13
2022-11-13T23:06:01.925Z,16.57
2022-11-13T23:08:30.551Z,14.13
2022-11-13T23:10:58.341Z,12.30
2022-11-13T23:13:26.182Z,15.27
2022-11-13T23:15:53.639Z,15.57
2022-11-13T23:18:21.097Z,13.33
2022-11-13T23:20:48.666Z,14.10
2022-11-13T23:23:16.751Z,14.93
2022-11-13T23:25:44.298Z,11.57
2022-11-13T23:28:12.196Z,12.20
2022-11-13T23:30:39.702Z,14.73
2022-11-13T23:33:07.203Z,13.27
2022-11-13T23:35:34.768Z,13.20
2022-11-13T23:38:02.283Z,13.63
2022-11-13T23:40:29.757Z,14.77
2022-11-13T23:42:57.294Z,11.10
2022-11-13T23:45:24.786Z,14.60
2022-11-13T23:47:52.226Z,15.57
2022-11-13T23:50:19.701Z,13.67
2022-11-13T23:52:47.997Z,14.17
2022-11-13T23:55:16.014Z,12.50
2022-11-13T23:57:43.543Z,15.60
